Time;durP1;ratioP1;P1;durP2;ratioP2;P2;SDS_P1;SDS_P2;PMS_P1;PMS_P2;Temp;Humidity;BMP_temperature;BMP_pressure;BME280_temperature;BME280_humidity;BME280_pressure;Samples;Min_cycle;Max_cycle;Signal;HPM_P1;HPM_P2
2022/08/04 00:01:02;;;;;;;10.40;7.22;;;18.50;99.90;;;;;;5016453;28;20072;-76
2022/08/04 00:03:40;;;;;;;9.70;7.00;;;18.50;99.90;;;;;;5016181;28;20034;-76
2022/08/04 00:06:18;;;;;;;9.52;7.18;;;18.50;99.90;;;;;;5014828;28;20049;-76
2022/08/04 00:08:48;;;;;;;10.32;7.13;;;18.50;99.90;;;;;;5015106;28;20046;-75
2022/08/04 00:11:20;;;;;;;11.65;6.55;;;18.40;99.90;;;;;;5014998;28;20049;-76
2022/08/04 00:13:54;;;;;;;9.20;6.97;;;18.40;99.90;;;;;;5016012;28;20046;-76
2022/08/04 00:16:23;;;;;;;13.45;7.18;;;18.40;99.90;;;;;;5016407;28;20042;-76
2022/08/04 00:18:55;;;;;;;9.05;7.03;;;18.30;99.90;;;;;;5016038;28;20046;-76
2022/08/04 00:21:26;;;;;;;9.45;7.38;;;18.30;99.90;;;;;;5015747;28;20049;-77
2022/08/04 00:23:55;;;;;;;9.85;6.80;;;18.20;99.90;;;;;;5016024;28;20042;-76
2022/08/04 00:26:22;;;;;;;16.65;10.82;;;18.20;99.90;;;;;;5016013;28;20172;-76
2022/08/04 00:28:51;;;;;;;13.00;10.20;;;18.20;99.90;;;;;;5019899;28;20099;-76
2022/08/04 00:31:18;;;;;;;12.85;7.53;;;18.10;99.90;;;;;;5035621;28;20063;-76
2022/08/04 00:33:46;;;;;;;9.75;6.93;;;18.10;99.90;;;;;;5035829;28;20033;-75
2022/08/04 00:36:14;;;;;;;14.27;7.35;;;18.00;99.90;;;;;;5017517;28;20052;-75
2022/08/04 00:38:43;;;;;;;9.05;7.32;;;17.90;99.90;;;;;;5015832;28;20045;-76
2022/08/04 00:41:22;;;;;;;9.57;7.43;;;17.90;99.90;;;;;;5015622;28;20460;-76
2022/08/04 00:44:09;;;;;;;10.35;7.65;;;17.90;99.90;;;;;;5015954;28;20048;-75
2022/08/04 00:46:57;;;;;;;9.23;7.05;;;17.80;99.90;;;;;;5016233;28;20073;-75
2022/08/04 00:49:51;;;;;;;10.32;7.28;;;17.80;99.90;;;;;;5014174;28;20042;-75
2022/08/04 00:52:33;;;;;;;7.68;6.55;;;17.80;99.90;;;;;;5012120;28;20049;-76
2022/08/04 00:55:27;;;;;;;8.18;6.80;;;17.80;99.90;;;;;;5014870;28;20087;-75
2022/08/04 00:58:22;;;;;;;9.15;6.97;;;17.80;99.90;;;;;;5015295;28;20057;-75
2022/08/04 01:00:58;;;;;;;9.23;7.10;;;17.70;99.90;;;;;;5015360;28;20090;-75
2022/08/04 01:03:42;;;;;;;10.80;7.30;;;17.70;99.90;;;;;;5014306;28;20045;-75
2022/08/04 01:06:18;;;;;;;9.38;7.15;;;17.70;99.90;;;;;;5015200;28;20042;-75
2022/08/04 01:09:06;;;;;;;8.93;7.43;;;17.70;99.90;;;;;;5014053;28;20394;-74
2022/08/04 01:11:47;;;;;;;10.13;7.25;;;17.70;99.90;;;;;;5013902;28;20049;-75
2022/08/04 01:14:45;;;;;;;8.98;7.72;;;17.70;99.90;;;;;;5015018;28;20080;-74
2022/08/04 01:17:20;;;;;;;9.75;7.25;;;17.60;99.90;;;;;;5014920;28;20203;-75
2022/08/04 01:20:04;;;;;;;9.40;7.43;;;17.50;99.90;;;;;;5015227;28;20128;-75
2022/08/04 01:23:13;;;;;;;9.23;7.38;;;17.40;99.90;;;;;;5014854;28;20409;-75
2022/08/04 01:26:02;;;;;;;10.65;7.15;;;17.30;99.90;;;;;;5015154;28;20042;-75
2022/08/04 01:28:46;;;;;;;8.60;7.53;;;17.30;99.90;;;;;;5015916;28;20077;-75
2022/08/04 01:31:21;;;;;;;9.60;7.63;;;17.30;99.90;;;;;;5034675;28;20053;-75
2022/08/04 01:33:52;;;;;;;12.43;8.40;;;17.30;99.90;;;;;;5034598;28;20417;-75
2022/08/04 01:36:24;;;;;;;11.15;8.40;;;17.30;99.90;;;;;;5034552;28;20087;-76
2022/08/04 01:38:54;;;;;;;10.65;8.10;;;17.30;99.90;;;;;;5033357;28;20099;-75
2022/08/04 01:41:22;;;;;;;10.57;7.70;;;17.30;99.90;;;;;;5034570;28;20061;-75
2022/08/04 01:43:53;;;;;;;13.43;8.57;;;17.30;99.90;;;;;;5022544;28;20042;-75
2022/08/04 01:46:25;;;;;;;12.45;8.10;;;17.30;99.90;;;;;;5015013;28;20045;-75
2022/08/04 01:48:55;;;;;;;10.10;8.75;;;17.20;99.90;;;;;;5014953;28;20046;-75
2022/08/04 01:51:24;;;;;;;9.68;8.10;;;17.20;99.90;;;;;;5015377;28;20108;-74
2022/08/04 01:53:51;;;;;;;14.02;9.10;;;17.10;99.90;;;;;;5014101;28;20398;-74
2022/08/04 01:56:20;;;;;;;13.98;8.70;;;17.10;99.90;;;;;;5014583;28;20080;-75
2022/08/04 01:58:48;;;;;;;10.75;7.80;;;17.00;99.90;;;;;;5013757;28;20501;-74
2022/08/04 02:01:15;;;;;;;13.23;8.48;;;17.00;99.90;;;;;;5013559;28;20045;-75
2022/08/04 02:03:45;;;;;;;12.60;8.95;;;16.90;99.90;;;;;;5014437;28;20049;-75
2022/08/04 02:06:25;;;;;;;10.55;8.15;;;16.90;99.90;;;;;;5015607;28;20038;-75
2022/08/04 02:09:07;;;;;;;11.65;8.48;;;17.00;99.90;;;;;;5015423;28;20047;-74
2022/08/04 02:11:34;;;;;;;9.73;8.13;;;17.00;99.90;;;;;;5015609;28;20050;-74
2022/08/04 02:14:11;;;;;;;13.95;8.60;;;17.00;99.90;;;;;;5015862;28;20045;-76
2022/08/04 02:16:47;;;;;;;9.10;8.02;;;16.90;99.90;;;;;;5015617;28;20050;-75
2022/08/04 02:19:33;;;;;;;13.55;8.70;;;16.90;99.90;;;;;;5016028;28;20053;-75
2022/08/04 02:22:03;;;;;;;;;;;16.90;99.90;;;;;;5016570;28;20041;-75
2022/08/04 02:24:32;;;;;;;11.45;8.48;;;16.90;99.90;;;;;;5015139;28;19921;-75
2022/08/04 02:27:03;;;;;;;10.50;8.40;;;16.90;99.90;;;;;;5015854;28;20045;-75
2022/08/04 02:29:39;;;;;;;11.93;8.73;;;16.80;99.90;;;;;;5023361;28;20053;-75
2022/08/04 02:32:10;;;;;;;12.27;8.43;;;16.80;99.90;;;;;;5034478;28;20076;-77
2022/08/04 02:34:46;;;;;;;10.18;8.55;;;16.80;99.90;;;;;;5033977;28;20570;-78
2022/08/04 02:37:14;;;;;;;;;;;16.80;99.90;;;;;;5033980;28;20508;-77
2022/08/04 02:39:43;;;;;;;10.27;9.02;;;16.70;99.90;;;;;;5034564;28;19967;-75
2022/08/04 02:42:12;;;;;;;12.23;9.30;;;16.70;99.90;;;;;;5031373;28;20080;-76
2022/08/04 02:44:41;;;;;;;11.80;8.65;;;16.70;99.90;;;;;;5014886;28;20046;-75
2022/08/04 02:47:11;;;;;;;12.80;9.82;;;16.70;99.90;;;;;;5013968;28;20046;-76
2022/08/04 02:49:42;;;;;;;11.18;9.20;;;16.60;99.90;;;;;;5013487;28;20070;-75
2022/08/04 02:52:11;;;;;;;14.82;8.68;;;16.60;99.90;;;;;;5013449;28;20504;-75
2022/08/04 02:54:41;;;;;;;10.50;9.13;;;16.60;99.90;;;;;;5013371;28;20109;-75
2022/08/04 02:57:11;;;;;;;12.68;9.73;;;16.60;99.90;;;;;;5013334;28;20475;-75
2022/08/04 02:59:52;;;;;;;13.05;9.20;;;16.60;99.90;;;;;;5013550;28;20489;-76
2022/08/04 03:02:29;;;;;;;12.25;10.00;;;16.50;99.90;;;;;;5013475;28;20046;-75
2022/08/04 03:05:03;;;;;;;11.15;9.95;;;16.60;99.90;;;;;;5013587;28;20096;-75
2022/08/04 03:07:58;;;;;;;13.77;10.20;;;16.50;99.90;;;;;;5012123;28;20042;-75
2022/08/04 03:11:00;;;;;;;13.77;10.43;;;16.50;99.90;;;;;;5012929;28;20046;-75
2022/08/04 03:13:57;;;;;;;18.45;11.82;;;16.50;99.90;;;;;;5013041;28;20490;-76
2022/08/04 03:16:47;;;;;;;17.77;11.32;;;16.40;99.90;;;;;;5008262;28;20108;-75
2022/08/04 03:19:40;;;;;;;15.75;11.60;;;16.40;99.90;;;;;;5016830;28;20048;-75
2022/08/04 03:22:27;;;;;;;16.90;10.73;;;16.40;99.90;;;;;;5017107;28;20489;-75
2022/08/04 03:25:34;;;;;;;15.27;11.93;;;16.40;99.90;;;;;;5012620;28;20050;-75
2022/08/04 03:28:29;;;;;;;20.45;16.00;;;16.30;99.90;;;;;;4997454;28;20051;-75
2022/08/04 03:31:26;;;;;;;24.15;19.95;;;16.40;99.90;;;;;;4997240;28;20052;-76
2022/08/04 03:34:10;;;;;;;28.80;24.33;;;16.30;99.90;;;;;;4986802;28;20093;-75
2022/08/04 03:37:08;;;;;;;21.08;18.13;;;16.30;99.90;;;;;;4997288;28;20038;-75
2022/08/04 03:40:17;;;;;;;20.20;16.90;;;16.20;99.90;;;;;;4976483;28;20062;-75
2022/08/04 03:43:20;;;;;;;22.48;16.42;;;16.20;99.90;;;;;;5027848;22;20049;-75
2022/08/04 03:46:28;;;;;;;20.10;14.40;;;16.20;99.90;;;;;;5028730;28;20508;-76
2022/08/04 03:49:31;;;;;;;18.90;13.90;;;16.30;99.90;;;;;;5037575;28;20053;-76
2022/08/04 03:55:31;;;;;;;17.90;12.93;;;16.30;99.90;;;;;;5059077;28;20037;-75
2022/08/04 03:58:30;;;;;;;17.77;12.82;;;16.40;99.90;;;;;;5057080;28;20488;-76
2022/08/04 04:01:12;;;;;;;18.10;12.40;;;16.40;99.90;;;;;;5057280;28;20041;-75
2022/08/04 04:04:08;;;;;;;13.57;10.10;;;16.50;99.90;;;;;;5056547;28;20044;-76
2022/08/04 04:06:59;;;;;;;13.48;9.00;;;16.80;99.90;;;;;;5056218;28;20489;-76
2022/08/04 04:10:03;;;;;;;14.18;9.45;;;17.30;99.90;;;;;;5056631;28;20134;-75
2022/08/04 04:12:55;;;;;;;17.85;9.70;;;17.60;99.90;;;;;;5056650;28;20446;-74
2022/08/04 04:16:07;;;;;;;11.70;8.30;;;18.20;99.90;;;;;;5057133;28;20087;-76
2022/08/04 04:19:01;;;;;;;11.90;7.80;;;18.70;99.90;;;;;;5056772;28;20048;-75
2022/08/04 04:21:46;;;;;;;13.88;8.55;;;19.30;99.90;;;;;;5056720;28;20041;-76
2022/08/04 04:24:40;;;;;;;11.10;7.90;;;19.80;99.90;;;;;;5058041;28;20071;-75
2022/08/04 04:27:17;;;;;;;12.93;8.80;;;20.30;99.90;;;;;;5075447;28;20098;-76
2022/08/04 04:30:10;;;;;;;12.93;7.28;;;20.60;99.90;;;;;;5077365;28;20096;-76
2022/08/04 04:33:03;;;;;;;15.50;7.88;;;21.10;99.90;;;;;;5077206;28;20053;-75
2022/08/04 04:35:48;;;;;;;13.82;8.82;;;21.20;99.90;;;;;;5077918;28;20407;-75
2022/08/04 04:38:44;;;;;;;13.68;7.63;;;21.20;99.90;;;;;;5059229;28;20048;-75
2022/08/04 04:41:30;;;;;;;14.88;9.77;;;21.60;99.90;;;;;;5058085;28;20045;-76
2022/08/04 04:44:38;;;;;;;10.02;7.53;;;22.60;99.90;;;;;;5056196;28;20071;-75
2022/08/04 04:47:13;;;;;;;9.00;6.32;;;23.10;99.90;;;;;;4975690;28;20051;-75
2022/08/04 04:49:49;;;;;;;11.23;6.63;;;23.20;99.90;;;;;;5024434;28;20049;-75
2022/08/04 04:52:25;;;;;;;12.43;7.32;;;22.20;99.90;;;;;;5056437;28;20079;-75
2022/08/04 04:55:00;;;;;;;9.48;6.53;;;21.60;99.90;;;;;;5051891;28;20464;-75
2022/08/04 04:57:34;;;;;;;10.20;7.28;;;21.20;99.90;;;;;;5036772;28;20075;-76
2022/08/04 05:00:05;;;;;;;11.77;7.25;;;21.10;99.90;;;;;;5047445;28;20063;-75
2022/08/04 05:02:59;;;;;;;11.35;7.25;;;20.80;99.90;;;;;;5068812;28;20048;-75
2022/08/04 05:05:55;;;;;;;15.90;7.22;;;20.60;99.90;;;;;;5047286;28;20045;-75
2022/08/04 05:08:51;;;;;;;16.00;8.00;;;20.90;99.90;;;;;;5076077;28;20045;-75
2022/08/04 05:11:52;;;;;;;11.02;7.13;;;20.90;99.90;;;;;;5056596;28;20106;-75
2022/08/04 05:14:27;;;;;;;9.73;7.38;;;20.90;99.90;;;;;;5038011;28;20041;-75
2022/08/04 05:17:01;;;;;;;14.25;7.82;;;21.10;99.90;;;;;;5037718;28;20118;-76
2022/08/04 05:19:43;;;;;;;15.30;7.60;;;21.20;99.90;;;;;;5056359;28;20045;-76
2022/08/04 05:22:18;;;;;;;14.98;7.50;;;21.00;99.90;;;;;;5056185;28;20052;-75
2022/08/04 05:24:47;;;;;;;;;;;21.10;99.90;;;;;;5055971;28;20053;-76
2022/08/04 05:27:22;;;;;;;11.80;7.18;;;21.80;99.90;;;;;;5056324;28;19920;-76
2022/08/04 05:29:53;;;;;;;9.23;6.57;;;22.70;99.90;;;;;;5067404;28;20041;-76
2022/08/04 05:32:27;;;;;;;11.07;6.78;;;23.80;99.90;;;;;;5070122;28;20045;-76
2022/08/04 05:34:58;;;;;;;11.18;7.70;;;24.20;99.90;;;;;;5037255;28;20099;-76
2022/08/04 05:37:30;;;;;;;11.13;7.88;;;24.70;99.90;;;;;;5055176;28;20175;-76
2022/08/04 05:40:01;;;;;;;10.88;7.88;;;25.00;99.90;;;;;;5055564;28;20045;-76
2022/08/04 05:42:30;;;;;;;14.93;9.57;;;24.70;99.90;;;;;;5055356;28;20128;-75
2022/08/04 05:44:59;;;;;;;12.05;8.75;;;24.60;99.90;;;;;;5056523;28;20048;-75
2022/08/04 05:47:29;;;;;;;13.65;8.75;;;24.30;99.90;;;;;;5055937;28;20040;-76
2022/08/04 05:49:57;;;;;;;14.57;8.27;;;24.20;99.90;;;;;;5055462;28;20040;-75
2022/08/04 05:52:25;;;;;;;12.20;7.80;;;24.30;99.90;;;;;;5055996;28;20032;-75
2022/08/04 05:54:55;;;;;;;17.17;8.63;;;24.50;99.90;;;;;;5054603;28;20041;-75
2022/08/04 05:57:25;;;;;;;15.75;8.20;;;24.90;99.90;;;;;;5054794;28;20090;-75
2022/08/04 05:59:55;;;;;;;20.63;9.35;;;25.10;99.90;;;;;;5053928;28;20033;-75
2022/08/04 06:02:24;;;;;;;15.68;10.45;;;25.20;99.90;;;;;;5055296;28;20124;-76
2022/08/04 06:04:53;;;;;;;20.70;11.23;;;25.40;99.90;;;;;;5054596;28;20037;-75
2022/08/04 06:07:20;;;;;;;12.23;7.75;;;25.60;99.90;;;;;;5036817;28;20057;-76
2022/08/04 06:09:48;;;;;;;11.80;7.78;;;25.70;99.90;;;;;;5036696;28;20056;-76
2022/08/04 06:12:20;;;;;;;16.27;7.85;;;25.70;99.90;;;;;;5055164;28;20041;-77
2022/08/04 06:14:51;;;;;;;23.55;8.50;;;25.90;99.90;;;;;;5053939;28;20070;-75
2022/08/04 06:17:24;;;;;;;26.15;9.88;;;26.00;99.90;;;;;;5054146;28;20059;-77
2022/08/04 06:19:53;;;;;;;25.58;8.82;;;26.00;99.90;;;;;;5054266;28;20496;-76
2022/08/04 06:22:23;;;;;;;24.17;8.20;;;26.20;99.90;;;;;;5054260;28;20395;-75
2022/08/04 06:24:54;;;;;;;14.52;8.23;;;26.40;99.90;;;;;;5052905;28;20049;-76
2022/08/04 06:27:23;;;;;;;14.50;7.55;;;26.50;99.90;;;;;;5036634;28;20049;-75
2022/08/04 06:29:53;;;;;;;18.27;8.45;;;26.70;99.90;;;;;;5068256;28;20127;-76
2022/08/04 06:32:26;;;;;;;13.55;7.78;;;26.30;99.90;;;;;;5074241;28;20505;-76
2022/08/04 06:34:56;;;;;;;12.30;6.78;;;26.30;99.90;;;;;;5054376;28;20053;-76
2022/08/04 06:37:25;;;;;;;11.85;8.38;;;26.20;99.90;;;;;;5053775;28;20064;-75
2022/08/04 06:39:53;;;;;;;16.35;7.95;;;26.30;99.90;;;;;;5035758;28;20091;-75
2022/08/04 06:42:25;;;;;;;11.60;7.30;;;26.70;99.90;;;;;;5053093;28;20049;-76
2022/08/04 06:44:58;;;;;;;14.57;6.35;;;26.60;99.90;;;;;;5053231;28;20076;-77
2022/08/04 06:47:25;;;;;;;12.98;7.15;;;26.50;99.90;;;;;;5053338;28;20368;-76
2022/08/04 06:49:55;;;;;;;13.05;7.80;;;26.80;99.90;;;;;;5035990;28;20405;-77
2022/08/04 06:52:23;;;;;;;18.30;8.63;;;27.10;99.90;;;;;;5052007;28;20044;-75
2022/08/04 06:54:52;;;;;;;12.82;7.43;;;27.50;99.90;;;;;;5053475;28;20037;-75
2022/08/04 06:57:23;;;;;;;13.05;8.93;;;27.60;99.90;;;;;;5053874;28;20067;-75
2022/08/04 06:59:55;;;;;;;16.02;7.90;;;27.70;99.90;;;;;;5054251;28;20515;-76
2022/08/04 07:02:27;;;;;;;11.35;7.82;;;27.80;99.90;;;;;;5061696;28;20060;-76
2022/08/04 07:04:54;;;;;;;13.75;7.43;;;27.90;99.90;;;;;;5062252;28;20052;-74
2022/08/04 07:07:24;;;;;;;16.00;7.72;;;27.90;99.90;;;;;;5054642;28;20094;-77
2022/08/04 07:09:51;;;;;;;12.88;7.38;;;27.90;99.90;;;;;;5053956;28;20060;-74
2022/08/04 07:12:20;;;;;;;17.23;8.25;;;27.90;99.90;;;;;;5054041;28;20041;-75
2022/08/04 07:14:52;;;;;;;12.00;7.93;;;28.10;99.90;;;;;;5055350;28;20048;-75
2022/08/04 07:17:22;;;;;;;12.05;7.40;;;28.20;99.90;;;;;;5054832;28;20036;-76
2022/08/04 07:19:49;;;;;;;12.77;6.63;;;28.30;99.90;;;;;;5055896;28;20474;-74
2022/08/04 07:22:17;;;;;;;10.73;7.47;;;28.50;99.90;;;;;;5060116;28;20462;-75
2022/08/04 07:24:44;;;;;;;17.27;10.85;;;28.60;99.90;;;;;;5059036;28;20404;-75
2022/08/04 07:27:12;;;;;;;14.45;9.35;;;28.80;99.90;;;;;;5054722;28;20037;-76
2022/08/04 07:29:41;;;;;;;9.32;7.72;;;29.10;99.90;;;;;;5065616;28;20060;-75
2022/08/04 07:32:12;;;;;;;15.70;7.75;;;29.10;99.90;;;;;;5073490;28;20045;-74
2022/08/04 07:34:40;;;;;;;16.05;9.50;;;29.10;99.90;;;;;;5073763;28;20487;-76
2022/08/04 07:37:08;;;;;;;18.00;14.23;;;29.10;99.90;;;;;;5074151;28;20044;-75
2022/08/04 07:39:36;;;;;;;11.07;8.65;;;29.20;99.50;;;;;;5072256;28;20075;-76
2022/08/04 07:42:05;;;;;;;20.23;9.57;;;29.50;98.40;;;;;;5055410;28;20143;-76
2022/08/04 07:44:33;;;;;;;14.20;7.38;;;29.40;97.80;;;;;;5055252;28;20068;-75
2022/08/04 07:47:01;;;;;;;10.18;7.10;;;29.40;98.10;;;;;;5073187;28;20229;-76
2022/08/04 07:49:30;;;;;;;8.23;6.15;;;29.60;97.90;;;;;;5073137;28;20048;-76
2022/08/04 07:51:58;;;;;;;16.00;6.72;;;29.60;96.20;;;;;;5073880;28;20127;-75
2022/08/04 07:54:26;;;;;;;16.50;7.35;;;29.90;96.30;;;;;;5070365;28;20086;-76
2022/08/04 07:56:54;;;;;;;15.93;7.88;;;29.90;95.30;;;;;;5052978;28;20459;-75
2022/08/04 07:59:21;;;;;;;12.68;8.00;;;29.90;95.20;;;;;;5053442;28;20443;-75
2022/08/04 08:01:49;;;;;;;13.20;6.82;;;29.80;95.40;;;;;;5052504;28;20055;-75
2022/08/04 08:04:17;;;;;;;11.10;6.13;;;29.90;95.30;;;;;;5036610;28;20055;-76
2022/08/04 08:06:46;;;;;;;11.18;6.65;;;29.70;95.50;;;;;;5056800;28;20037;-76
2022/08/04 08:09:15;;;;;;;14.25;6.78;;;30.00;95.50;;;;;;5056757;28;20082;-76
2022/08/04 08:11:43;;;;;;;11.40;6.72;;;30.20;95.50;;;;;;5039084;28;20045;-75
2022/08/04 08:14:11;;;;;;;18.23;7.47;;;30.20;94.40;;;;;;5057104;28;20052;-75
2022/08/04 08:16:39;;;;;;;9.68;7.05;;;30.50;94.80;;;;;;5056862;28;20404;-76
2022/08/04 08:19:07;;;;;;;16.17;7.40;;;30.60;93.30;;;;;;5038584;28;20045;-76
2022/08/04 08:21:35;;;;;;;13.40;6.80;;;30.60;93.10;;;;;;5056648;28;20077;-76
2022/08/04 08:24:05;;;;;;;19.00;6.22;;;30.60;92.30;;;;;;5055226;28;20037;-74
2022/08/04 08:26:33;;;;;;;11.18;5.47;;;30.40;91.90;;;;;;5056431;28;20129;-76
2022/08/04 08:29:02;;;;;;;11.20;5.30;;;30.30;91.50;;;;;;5061243;28;20036;-77
2022/08/04 08:31:29;;;;;;;18.88;7.57;;;30.30;91.60;;;;;;5056458;28;20127;-76
2022/08/04 08:33:58;;;;;;;7.20;4.95;;;30.60;90.90;;;;;;5056264;28;20048;-76
2022/08/04 08:36:29;;;;;;;11.88;6.63;;;30.80;89.30;;;;;;5056601;28;20043;-75
2022/08/04 08:39:05;;;;;;;7.20;5.03;;;30.80;90.20;;;;;;5056203;28;20044;-76
2022/08/04 08:42:02;;;;;;;7.82;3.95;;;30.70;86.10;;;;;;5055334;28;20065;-76
2022/08/04 08:45:01;;;;;;;7.78;4.88;;;30.90;80.10;;;;;;5035758;28;20073;-76
2022/08/04 08:47:43;;;;;;;12.35;8.57;;;31.20;79.80;;;;;;5050054;28;20122;-75
2022/08/04 08:50:37;;;;;;;10.32;5.03;;;31.60;79.30;;;;;;5040387;28;20049;-76
2022/08/04 08:53:23;;;;;;;15.48;6.72;;;31.80;77.10;;;;;;5047710;28;20053;-75
2022/08/04 08:56:09;;;;;;;8.38;5.43;;;32.00;76.90;;;;;;5055072;28;20044;-76
2022/08/04 08:58:47;;;;;;;14.65;6.00;;;32.20;74.00;;;;;;5051555;28;20111;-75
2022/08/04 09:01:28;;;;;;;6.45;4.53;;;32.60;72.50;;;;;;5066700;28;20052;-75
2022/08/04 09:04:35;;;;;;;6.32;4.10;;;32.90;69.60;;;;;;5057723;28;20041;-76
2022/08/04 09:07:35;;;;;;;5.53;3.67;;;33.10;68.30;;;;;;5056237;28;20029;-74
2022/08/04 09:10:10;;;;;;;9.77;5.72;;;33.20;66.80;;;;;;5055583;28;20053;-76
2022/08/04 09:12:50;;;;;;;6.18;3.60;;;33.30;66.30;;;;;;5054504;28;20060;-76
2022/08/04 09:15:27;;;;;;;6.03;3.67;;;33.30;64.10;;;;;;5034783;28;20440;-75
2022/08/04 09:18:00;;;;;;;8.07;5.20;;;33.50;65.50;;;;;;5060622;28;20085;-76
2022/08/04 09:20:34;;;;;;;6.38;3.38;;;33.90;64.50;;;;;;5058305;28;20045;-76
2022/08/04 09:23:13;;;;;;;3.70;2.80;;;34.00;64.10;;;;;;5057384;28;20104;-76
2022/08/04 09:25:48;;;;;;;4.68;2.83;;;34.10;59.00;;;;;;5041591;28;20301;-77
2022/08/04 09:28:23;;;;;;;4.32;3.30;;;34.00;59.50;;;;;;5036971;28;20083;-77
2022/08/04 09:30:57;;;;;;;6.38;4.07;;;33.80;58.30;;;;;;5060682;28;20044;-76
2022/08/04 09:33:41;;;;;;;;;;;33.90;58.40;;;;;;5088422;28;20045;-76
2022/08/04 09:36:14;;;;;;;10.10;4.28;;;33.80;58.20;;;;;;5083692;28;20338;-75
2022/08/04 09:38:49;;;;;;;6.03;4.55;;;33.90;58.10;;;;;;5056524;28;20071;-76
2022/08/04 09:41:29;;;;;;;3.55;2.90;;;34.00;57.10;;;;;;5055959;28;20045;-75
2022/08/04 09:44:08;;;;;;;6.05;3.13;;;34.20;56.00;;;;;;5055003;22;20052;-76
2022/08/04 09:46:40;;;;;;;7.07;3.50;;;34.10;55.40;;;;;;5017046;28;20042;-79
2022/08/04 09:49:14;;;;;;;5.13;3.10;;;33.90;54.90;;;;;;5008255;28;20497;-80
2022/08/04 09:51:52;;;;;;;4.65;3.30;;;34.00;54.10;;;;;;5004834;28;20049;-80
2022/08/04 09:54:26;;;;;;;8.70;3.78;;;33.80;53.70;;;;;;5012379;28;20107;-79
2022/08/04 09:57:01;;;;;;;6.57;3.67;;;34.10;53.70;;;;;;4986202;28;20581;-80
2022/08/04 09:59:41;;;;;;;4.38;3.30;;;34.20;55.00;;;;;;5003051;28;20049;-80
2022/08/04 10:02:13;;;;;;;6.50;3.42;;;33.90;55.80;;;;;;4984386;28;20073;-79
2022/08/04 10:04:42;;;;;;;6.70;3.60;;;33.50;58.70;;;;;;5006903;28;20038;-78
2022/08/04 10:07:45;;;;;;;8.82;5.28;;;33.50;58.60;;;;;;5026469;28;20037;-79
2022/08/04 10:10:26;;;;;;;5.65;3.47;;;33.70;58.90;;;;;;5021793;28;20435;-79
2022/08/04 10:13:21;;;;;;;5.57;3.80;;;33.60;56.30;;;;;;5020611;28;20076;-78
2022/08/04 10:16:06;;;;;;;4.35;3.05;;;33.30;58.00;;;;;;5018866;28;20092;-77
2022/08/04 10:18:52;;;;;;;6.43;3.47;;;33.40;57.70;;;;;;5018357;28;20037;-77
2022/08/04 10:21:26;;;;;;;6.10;3.38;;;33.10;56.40;;;;;;4999173;28;20651;-79
2022/08/04 10:24:08;;;;;;;7.15;3.30;;;33.20;57.10;;;;;;5018520;28;20045;-78
2022/08/04 10:26:45;;;;;;;7.15;4.00;;;32.80;56.80;;;;;;5001026;28;20148;-78
2022/08/04 10:29:16;;;;;;;5.20;3.70;;;33.00;56.70;;;;;;5006083;28;20042;-79
2022/08/04 10:31:57;;;;;;;4.22;3.40;;;33.00;56.70;;;;;;5038654;28;20052;-78
2022/08/04 10:34:28;;;;;;;3.97;3.15;;;33.00;56.80;;;;;;5018134;28;20041;-79
2022/08/04 10:37:00;;;;;;;8.23;4.00;;;32.90;56.60;;;;;;5019668;28;20377;-79
2022/08/04 10:39:37;;;;;;;5.38;4.00;;;33.20;56.30;;;;;;5018769;28;20049;-78
2022/08/04 10:42:16;;;;;;;6.90;3.88;;;33.10;56.00;;;;;;5016155;28;20103;-78
2022/08/04 10:45:05;;;;;;;5.10;4.03;;;33.20;55.40;;;;;;5021026;28;20066;-78
2022/08/04 10:47:41;;;;;;;6.95;4.40;;;33.50;55.70;;;;;;5011628;28;20050;-81
2022/08/04 10:50:12;;;;;;;6.00;3.40;;;33.50;55.40;;;;;;5032165;28;20041;-79
2022/08/04 10:52:48;;;;;;;7.30;5.90;;;33.60;54.80;;;;;;5036389;28;20045;-78
2022/08/04 10:55:19;;;;;;;8.57;3.97;;;33.70;54.90;;;;;;5020517;28;20038;-79
2022/08/04 10:57:51;;;;;;;5.60;3.95;;;33.80;54.40;;;;;;5000757;28;20080;-79
2022/08/04 11:00:23;;;;;;;5.20;3.53;;;33.70;54.20;;;;;;5017872;28;20046;-78
2022/08/04 11:02:59;;;;;;;4.97;4.10;;;33.60;54.30;;;;;;4998491;28;20042;-79
2022/08/04 11:05:31;;;;;;;5.40;3.97;;;33.50;55.40;;;;;;5000476;28;20501;-79
2022/08/04 11:08:03;;;;;;;6.57;2.95;;;33.50;54.90;;;;;;5018202;28;20046;-80
2022/08/04 11:10:37;;;;;;;4.32;2.90;;;33.50;54.10;;;;;;5017314;28;20077;-78
2022/08/04 11:13:08;;;;;;;4.43;3.50;;;33.40;53.80;;;;;;4999492;28;20050;-80
2022/08/04 11:15:40;;;;;;;7.95;4.10;;;33.60;53.30;;;;;;4999249;28;20138;-79
2022/08/04 11:18:16;;;;;;;8.43;4.28;;;33.80;52.90;;;;;;4999476;28;20100;-78
2022/08/04 11:20:50;;;;;;;23.20;5.63;;;34.10;52.50;;;;;;4998503;28;20053;-79
2022/08/04 11:23:18;;;;;;;7.57;3.53;;;34.50;51.80;;;;;;5015419;28;20411;-79
2022/08/04 11:25:53;;;;;;;4.70;4.20;;;34.70;51.90;;;;;;5015166;28;20049;-76
2022/08/04 11:28:28;;;;;;;5.75;3.97;;;34.40;51.50;;;;;;4998726;28;20049;-78
2022/08/04 11:31:02;;;;;;;5.50;4.05;;;34.20;52.10;;;;;;4980129;28;20557;-78
2022/08/04 11:33:39;;;;;;;5.57;3.72;;;34.40;51.70;;;;;;4979627;28;20046;-78
2022/08/04 11:36:16;;;;;;;23.15;6.05;;;34.50;52.00;;;;;;4995173;28;20056;-79
2022/08/04 11:38:49;;;;;;;6.70;3.83;;;34.60;51.70;;;;;;5019679;28;20038;-78
2022/08/04 11:41:22;;;;;;;5.00;3.55;;;34.70;51.30;;;;;;5003416;28;20394;-79
2022/08/04 11:43:57;;;;;;;7.72;4.07;;;34.60;51.20;;;;;;5002675;28;20064;-78
2022/08/04 11:46:29;;;;;;;6.53;4.65;;;34.10;51.40;;;;;;5003615;28;20072;-77
2022/08/04 11:49:04;;;;;;;3.58;3.03;;;34.20;51.70;;;;;;5020726;28;20125;-78
2022/08/04 11:51:33;;;;;;;5.57;3.38;;;34.00;50.30;;;;;;5001494;28;20046;-78
2022/08/04 11:54:01;;;;;;;4.05;3.00;;;34.20;51.50;;;;;;5001085;28;20048;-78
2022/08/04 11:56:30;;;;;;;5.50;3.40;;;34.10;51.30;;;;;;5017642;28;20139;-78
2022/08/04 11:59:00;;;;;;;4.00;2.80;;;34.00;50.30;;;;;;5021532;28;20048;-77
2022/08/04 12:01:38;;;;;;;4.40;3.10;;;34.00;51.20;;;;;;5020937;28;20049;-79
2022/08/04 12:04:17;;;;;;;4.82;2.63;;;34.00;50.80;;;;;;5024480;28;20049;-78
2022/08/04 12:06:49;;;;;;;5.72;3.15;;;33.50;51.00;;;;;;5009163;28;20054;-80
2022/08/04 12:09:27;;;;;;;4.35;2.92;;;33.50;51.00;;;;;;5023025;28;20038;-77
2022/08/04 12:12:00;;;;;;;6.65;3.50;;;33.50;51.50;;;;;;5019502;28;20097;-78
2022/08/04 12:14:38;;;;;;;5.40;3.03;;;33.30;51.20;;;;;;5020630;28;20046;-78
2022/08/04 12:17:07;;;;;;;5.30;3.35;;;33.40;51.30;;;;;;5003306;28;20481;-78
2022/08/04 12:19:43;;;;;;;6.05;3.38;;;33.40;50.80;;;;;;5001320;28;20045;-78
2022/08/04 12:22:15;;;;;;;5.30;3.47;;;33.20;50.70;;;;;;5018018;28;20050;-78
2022/08/04 12:24:47;;;;;;;63.38;51.20;;;33.00;51.30;;;;;;5017106;28;20052;-77
2022/08/04 12:27:17;;;;;;;5.38;3.65;;;33.10;51.00;;;;;;5017293;28;20049;-79
2022/08/04 12:29:46;;;;;;;32.00;26.25;;;33.20;50.70;;;;;;5019776;28;20092;-76
2022/08/04 12:32:22;;;;;;;23.85;19.88;;;33.10;51.20;;;;;;5035042;28;20053;-78
2022/08/04 12:35:01;;;;;;;11.82;4.75;;;33.30;51.70;;;;;;5023395;28;20042;-77
2022/08/04 12:37:41;;;;;;;6.30;4.20;;;33.50;50.70;;;;;;5023277;28;20088;-80
2022/08/04 12:40:15;;;;;;;3.85;3.17;;;33.50;50.50;;;;;;5020929;28;20045;-78
2022/08/04 12:43:02;;;;;;;9.88;6.55;;;33.20;51.00;;;;;;5019651;28;20137;-80
2022/08/04 12:45:30;;;;;;;6.07;4.57;;;33.10;51.60;;;;;;5020785;28;20822;-78
2022/08/04 12:48:00;;;;;;;4.88;4.07;;;33.20;51.10;;;;;;5019571;28;20478;-80
2022/08/04 12:50:31;;;;;;;5.15;4.38;;;33.20;51.00;;;;;;5000409;28;20069;-80
2022/08/04 12:52:58;;;;;;;6.57;3.55;;;33.40;51.70;;;;;;5017042;28;20053;-80
2022/08/04 12:55:30;;;;;;;6.93;4.32;;;33.50;51.00;;;;;;5013219;28;20418;-81
2022/08/04 12:57:58;;;;;;;6.03;3.92;;;33.50;50.90;;;;;;5004926;28;20449;-80
2022/08/04 13:00:29;;;;;;;5.35;3.92;;;33.60;51.00;;;;;;5001794;28;20394;-79
2022/08/04 13:03:04;;;;;;;6.80;3.97;;;33.70;51.40;;;;;;5031592;28;20061;-80
2022/08/04 13:05:33;;;;;;;;;;;33.70;50.50;;;;;;5040835;28;20068;-81
2022/08/04 13:08:03;;;;;;;4.97;4.47;;;33.80;50.10;;;;;;5021680;28;19952;-81
2022/08/04 13:10:37;;;;;;;5.88;4.13;;;33.90;50.10;;;;;;5020917;28;20050;-79
2022/08/04 13:13:05;;;;;;;7.47;5.70;;;33.70;49.70;;;;;;5019971;28;20556;-80
2022/08/04 13:15:33;;;;;;;11.23;6.32;;;33.80;49.90;;;;;;5004324;28;20049;-80
2022/08/04 13:18:04;;;;;;;9.20;6.03;;;33.90;49.70;;;;;;5004639;28;20034;-80
2022/08/04 13:20:35;;;;;;;17.17;13.23;;;34.00;49.70;;;;;;5007024;28;20109;-79
2022/08/04 13:23:07;;;;;;;7.97;5.20;;;34.10;50.30;;;;;;5023283;28;20069;-81
2022/08/04 13:25:39;;;;;;;7.38;4.00;;;33.80;51.00;;;;;;5012829;28;20046;-79
2022/08/04 13:28:09;;;;;;;6.88;3.70;;;33.60;50.60;;;;;;5015647;28;20057;-79
2022/08/04 13:30:36;;;;;;;5.97;4.15;;;33.70;49.50;;;;;;5035144;28;20071;-79